METAR Data
IDs: Format: Raw Decoded Include TAF

Data at: 0002 UTC 01 Mar 2021

KJOT 282355Z AUTO 29007KT 10SM OVC017 04/01 A2987 RMK AO2 T00370011 10106 20037